Search for airport 
image banner adimage banner ad
image banner ad

SVGU - Guanare Ntl

Located in Guanare, Venezuela

ICAO - SVGU, IATA - GUQ

Data provided by Airmate  

General information

Coordinates: N9°1'37" W69°45'19"
Elevation is 531 feet MSL.
 
Rated:
View ratings: [VIEW]


View others Airports in Portuguesa

Operational data

Open for public use
Current time UTC:
Current local time:
Weather
METAR: SVGU 151902Z AUTO 15005KT NCD 32/26 Q1010
View NOTAMs / SUP AIP / TFR affecting this airport [VIEW]
Communications frequencies: [VIEW]

Runways:

RWY identifierQFULength (ft)Width (ft)SurfaceLDA (ft)
0545°5905131ASP
23225°5906131
12196949
30196949

Airport contact information

Address: Guanare Venezuela

Satellite view of SVGU